createdAt,value
2023-02-16T00:02:49.231Z,100301.09
2023-02-16T00:06:57.126Z,100297.50
2023-02-16T00:11:18.711Z,100298.78
2023-02-16T00:15:24.467Z,100285.28
2023-02-16T00:19:33.658Z,100292.47
2023-02-16T00:23:37.872Z,100291.56
2023-02-16T00:27:42.198Z,100296.06
2023-02-16T00:31:56.897Z,100294.25
2023-02-16T00:36:02.206Z,100291.19
2023-02-16T00:40:07.540Z,100292.47
2023-02-16T00:44:18.812Z,100288.28
2023-02-16T00:48:25.208Z,100283.84
2023-02-16T00:52:37.677Z,100288.53
2023-02-16T00:56:44.224Z,100285.44
2023-02-16T01:00:53.484Z,100292.97
2023-02-16T01:05:00.981Z,100287.88
2023-02-16T01:09:31.560Z,100289.06
2023-02-16T01:13:44.374Z,100282.53
2023-02-16T01:17:50.434Z,100286.56
2023-02-16T01:21:58.485Z,100278.13
2023-02-16T01:26:02.215Z,100287.22
2023-02-16T01:30:06.707Z,100280.31
2023-02-16T01:34:16.068Z,100276.91
2023-02-16T01:38:26.059Z,100287.03
2023-02-16T01:42:37.281Z,100284.69
2023-02-16T01:46:42.532Z,100285.22
2023-02-16T01:50:54.432Z,100277.88
2023-02-16T01:55:12.558Z,100278.13
2023-02-16T01:59:24.314Z,100275.22
2023-02-16T02:03:48.020Z,100263.91
2023-02-16T02:07:56.375Z,100271.75
2023-02-16T02:12:08.642Z,100271.75
2023-02-16T02:16:17.372Z,100268.38
2023-02-16T02:20:45.021Z,100262.47
2023-02-16T02:25:30.530Z,100271.78
2023-02-16T02:30:15.736Z,100264.78
2023-02-16T02:34:26.781Z,100267.75
2023-02-16T02:38:43.078Z,100256.06
2023-02-16T02:42:56.609Z,100259.88
2023-02-16T02:47:06.672Z,100247.03
2023-02-16T02:51:32.464Z,100259.03
2023-02-16T02:56:07.030Z,100253.38
2023-02-16T03:00:35.313Z,100243.97
2023-02-16T03:04:42.440Z,100250.50
2023-02-16T03:09:03.246Z,100245.19
2023-02-16T03:13:11.112Z,100252.72
2023-02-16T03:17:36.678Z,100252.53
2023-02-16T03:22:01.626Z,100248.97
2023-02-16T03:26:27.118Z,100257.16
2023-02-16T03:30:34.193Z,100252.13
2023-02-16T03:34:50.180Z,100244.50
2023-02-16T03:38:56.688Z,100234.72
2023-02-16T03:43:03.813Z,100236.22
2023-02-16T03:47:11.540Z,100238.41
2023-02-16T03:51:18.506Z,100235.78
2023-02-16T03:55:30.168Z,100242.44
2023-02-16T03:59:35.419Z,100234.69
2023-02-16T04:03:38.836Z,100241.91
2023-02-16T04:07:45.878Z,100239.63
2023-02-16T04:12:06.845Z,100236.63
2023-02-16T04:16:11.689Z,100239.47
2023-02-16T04:20:15.583Z,100241.78
2023-02-16T04:24:18.823Z,100239.88
2023-02-16T04:28:22.363Z,100238.53
2023-02-16T04:32:27.312Z,100250.78
2023-02-16T04:36:30.241Z,100247.66
2023-02-16T04:40:33.447Z,100245.47
2023-02-16T04:44:36.878Z,100223.53
2023-02-16T04:48:41.642Z,100251.59
2023-02-16T04:52:45.863Z,100248.03
2023-02-16T04:56:49.489Z,100252.81
2023-02-16T05:00:52.948Z,100265.44
2023-02-16T05:04:57.868Z,100257.47
2023-02-16T05:09:00.992Z,100254.56
2023-02-16T05:13:21.782Z,100254.72
2023-02-16T05:17:26.969Z,100255.53
2023-02-16T05:21:35.701Z,100249.91
2023-02-16T05:25:39.053Z,100254.28
2023-02-16T05:29:42.117Z,100249.91
2023-02-16T05:33:45.479Z,100256.56
2023-02-16T05:37:50.144Z,100256.28
2023-02-16T05:41:53.324Z,100252.53
2023-02-16T05:45:56.519Z,100233.03
2023-02-16T05:49:59.687Z,100246.06
2023-02-16T05:54:04.362Z,100260.63
2023-02-16T05:58:07.871Z,100259.56
2023-02-16T06:02:10.953Z,100264.81
2023-02-16T06:06:14.379Z,100250.03
2023-02-16T06:10:19.202Z,100262.34
2023-02-16T06:14:22.228Z,100267.41
2023-02-16T06:18:26.177Z,100271.06
2023-02-16T06:22:29.088Z,100270.97
2023-02-16T06:26:33.352Z,100289.91
2023-02-16T06:30:36.531Z,100275.19
2023-02-16T06:34:39.458Z,100294.47
2023-02-16T06:38:42.665Z,100305.06
2023-02-16T06:42:47.190Z,100307.44
2023-02-16T06:46:50.229Z,100300.50
2023-02-16T06:50:53.621Z,100306.28
2023-02-16T06:54:56.413Z,100306.75
2023-02-16T06:59:00.770Z,100273.47
2023-02-16T07:03:03.590Z,100310.28
2023-02-16T07:07:06.478Z,100296.97
2023-02-16T07:11:09.350Z,100293.28
2023-02-16T07:15:13.813Z,100292.66
2023-02-16T07:19:16.797Z,100302.06
2023-02-16T07:23:19.591Z,100294.06
2023-02-16T07:27:22.737Z,100302.31
2023-02-16T07:31:27.359Z,100297.16
2023-02-16T07:35:30.394Z,100306.22
2023-02-16T07:39:34.165Z,100308.81
2023-02-16T07:43:37.299Z,100315.22
2023-02-16T07:47:41.412Z,100318.91
2023-02-16T07:51:44.954Z,100320.94
2023-02-16T07:55:48.201Z,100320.44
2023-02-16T07:59:52.571Z,100303.38
2023-02-16T08:04:06.375Z,100311.50
2023-02-16T08:08:12.674Z,100314.97
2023-02-16T08:12:17.056Z,100322.50
2023-02-16T08:16:21.893Z,100313.13
2023-02-16T08:20:45.125Z,100332.84
2023-02-16T08:24:50.232Z,100312.97
2023-02-16T08:28:58.656Z,100307.56
2023-02-16T08:33:09.035Z,100322.81
2023-02-16T08:37:17.963Z,100323.91
2023-02-16T08:41:22.314Z,100320.41
2023-02-16T08:45:25.917Z,100314.19
2023-02-16T08:49:31.862Z,100313.56
2023-02-16T08:53:37.631Z,100311.88
2023-02-16T08:57:44.190Z,100309.31
2023-02-16T09:01:48.394Z,100320.13
2023-02-16T09:05:53.304Z,100316.63
2023-02-16T09:09:58.188Z,100309.28
2023-02-16T09:14:01.023Z,100305.16
2023-02-16T09:18:04.154Z,100308.94
2023-02-16T09:22:06.996Z,100302.63
2023-02-16T09:26:11.910Z,100304.94
2023-02-16T09:30:15.626Z,100314.03
2023-02-16T09:34:20.346Z,100307.97
2023-02-16T09:38:23.494Z,100283.44
2023-02-16T09:42:34.608Z,100293.34
2023-02-16T09:46:38.146Z,100304.41
2023-02-16T09:50:53.442Z,100310.94
2023-02-16T09:54:59.572Z,100312.50
2023-02-16T09:59:11.364Z,100300.41
2023-02-16T10:03:28.896Z,100309.53
2023-02-16T10:07:41.248Z,100303.94
2023-02-16T10:11:48.927Z,100312.22
2023-02-16T10:15:56.189Z,100314.72
2023-02-16T10:20:01.823Z,100306.13
2023-02-16T10:24:07.607Z,100297.72
2023-02-16T10:28:17.631Z,100291.84
2023-02-16T10:32:29.270Z,100279.94
2023-02-16T10:36:44.478Z,100289.91
2023-02-16T10:40:55.466Z,100293.13
2023-02-16T10:45:03.248Z,100283.63
2023-02-16T10:49:11.228Z,100300.75
2023-02-16T10:53:16.242Z,100294.28
2023-02-16T10:57:27.153Z,100299.25
2023-02-16T11:01:36.160Z,100299.03
2023-02-16T11:05:42.189Z,100293.72
2023-02-16T11:09:47.291Z,100283.56
2023-02-16T11:13:58.839Z,100292.50
2023-02-16T11:18:06.403Z,100284.63
2023-02-16T11:22:26.940Z,100281.53
2023-02-16T11:26:38.875Z,100282.16
2023-02-16T11:30:43.881Z,100273.44
2023-02-16T11:34:50.455Z,100262.16
2023-02-16T11:39:05.736Z,100275.66
2023-02-16T11:43:13.902Z,100274.28
2023-02-16T11:47:24.757Z,100264.47
2023-02-16T11:51:35.014Z,100235.03
2023-02-16T11:55:44.608Z,100245.94
2023-02-16T11:59:47.567Z,100214.34
2023-02-16T12:04:01.800Z,100235.00
2023-02-16T12:08:30.640Z,100230.88
2023-02-16T12:12:47.764Z,100227.66
2023-02-16T12:16:55.888Z,100231.31
2023-02-16T12:21:04.929Z,100224.53
2023-02-16T12:25:28.534Z,100218.38
2023-02-16T12:29:39.710Z,100219.13
2023-02-16T12:33:49.574Z,100201.84
2023-02-16T12:37:53.707Z,100188.50
2023-02-16T12:42:19.898Z,100187.59
2023-02-16T12:46:29.964Z,100167.25
2023-02-16T12:50:34.100Z,100159.00
2023-02-16T12:54:43.649Z,100156.50
2023-02-16T12:58:50.074Z,100119.44
2023-02-16T13:03:13.413Z,100151.56
2023-02-16T13:07:19.798Z,100144.50
2023-02-16T13:11:25.999Z,100140.31
2023-02-16T13:15:34.479Z,100123.94
2023-02-16T13:19:38.964Z,100139.81
2023-02-16T13:24:01.760Z,100140.59
2023-02-16T13:28:26.046Z,100129.63
2023-02-16T13:32:46.909Z,100119.06
2023-02-16T13:37:09.523Z,100131.78
2023-02-16T13:41:30.652Z,100127.69
2023-02-16T13:45:35.794Z,100140.81
2023-02-16T13:49:43.169Z,100134.44
2023-02-16T13:53:53.741Z,100142.16
2023-02-16T13:58:01.813Z,100124.84
2023-02-16T14:02:06.142Z,100110.41
2023-02-16T14:06:37.045Z,100119.22
2023-02-16T14:11:09.665Z,100114.34
2023-02-16T14:15:20.565Z,100120.66
2023-02-16T14:19:25.996Z,100119.09
2023-02-16T14:23:34.571Z,100120.88
2023-02-16T14:27:45.673Z,100117.06
2023-02-16T14:31:52.392Z,100109.44
2023-02-16T14:36:09.390Z,100098.44
2023-02-16T14:40:16.942Z,100105.09
2023-02-16T14:44:35.625Z,100118.56
2023-02-16T14:49:17.381Z,100108.88
2023-02-16T14:53:58.224Z,100109.41
2023-02-16T14:58:05.295Z,100097.06
2023-02-16T15:02:28.246Z,100114.84
2023-02-16T15:06:34.499Z,100105.94
2023-02-16T15:10:40.726Z,100093.16
2023-02-16T15:14:46.017Z,100106.19
2023-02-16T15:18:52.924Z,100103.25
2023-02-16T15:22:57.420Z,100090.56
2023-02-16T15:27:01.698Z,100095.16
2023-02-16T15:31:07.021Z,100097.06
2023-02-16T15:35:23.869Z,100094.75
2023-02-16T15:39:42.724Z,100094.16
2023-02-16T15:43:52.244Z,100086.72
2023-02-16T15:47:55.395Z,100088.28
2023-02-16T15:52:01.088Z,100100.09
2023-02-16T15:56:06.238Z,100082.69
2023-02-16T16:00:18.176Z,100085.25
2023-02-16T16:04:23.403Z,100083.00
2023-02-16T16:08:29.597Z,100084.75
2023-02-16T16:12:32.400Z,100084.47
2023-02-16T16:16:36.163Z,100086.88
2023-02-16T16:20:41.757Z,100080.81
2023-02-16T16:24:48.618Z,100078.59
2023-02-16T16:28:52.083Z,100060.84
2023-02-16T16:33:02.535Z,100079.00
2023-02-16T16:37:08.684Z,100081.31
2023-02-16T16:41:30.711Z,100082.63
2023-02-16T16:45:41.103Z,100081.13
2023-02-16T16:49:51.058Z,100078.06
2023-02-16T16:53:55.447Z,100083.03
2023-02-16T16:58:01.363Z,100086.81
2023-02-16T17:02:04.667Z,100081.38
2023-02-16T17:06:08.596Z,100081.47
2023-02-16T17:10:12.163Z,100091.91
2023-02-16T17:14:18.975Z,100086.22
2023-02-16T17:18:23.457Z,100080.94
2023-02-16T17:22:26.978Z,100088.16
2023-02-16T17:26:30.333Z,100079.47
2023-02-16T17:30:35.622Z,100079.13
2023-02-16T17:34:40.204Z,100075.00
2023-02-16T17:38:44.201Z,100075.22
2023-02-16T17:42:48.197Z,100080.13
2023-02-16T17:46:54.660Z,100089.84
2023-02-16T17:50:58.309Z,100093.81
2023-02-16T17:55:01.492Z,100094.25
2023-02-16T17:59:05.308Z,100100.59
2023-02-16T18:03:10.209Z,100095.91
2023-02-16T18:07:14.385Z,100098.88
2023-02-16T18:11:17.865Z,100099.47
2023-02-16T18:15:21.232Z,100096.56
2023-02-16T18:19:26.076Z,100075.72
2023-02-16T18:23:29.498Z,100093.66
2023-02-16T18:27:32.821Z,100101.13
2023-02-16T18:31:36.052Z,100105.72
2023-02-16T18:35:41.155Z,100101.28
2023-02-16T18:39:44.265Z,100102.91
2023-02-16T18:43:47.833Z,100101.66
2023-02-16T18:47:51.069Z,100101.44
2023-02-16T18:51:55.900Z,100097.56
2023-02-16T18:55:59.181Z,100099.75
2023-02-16T19:00:02.598Z,100060.03
2023-02-16T19:04:06.959Z,100106.06
2023-02-16T19:08:12.057Z,100091.09
2023-02-16T19:12:15.076Z,100098.69
2023-02-16T19:16:18.565Z,100084.91
2023-02-16T19:20:21.909Z,100089.41
2023-02-16T19:24:27.174Z,100104.78
2023-02-16T19:28:30.314Z,100111.94
2023-02-16T19:32:33.672Z,100117.88
2023-02-16T19:36:36.894Z,100116.28
2023-02-16T19:40:41.614Z,100126.44
2023-02-16T19:44:44.867Z,100125.53
2023-02-16T19:48:48.352Z,100123.69
2023-02-16T19:52:52.061Z,100120.16
2023-02-16T19:56:57.897Z,100122.25
2023-02-16T20:01:07.474Z,100117.97
2023-02-16T20:05:11.472Z,100123.78
2023-02-16T20:09:14.915Z,100102.94
2023-02-16T20:13:20.024Z,100118.94
2023-02-16T20:17:23.415Z,100108.88
2023-02-16T20:21:28.373Z,100109.94
2023-02-16T20:25:31.761Z,100111.66
2023-02-16T20:29:36.649Z,100104.13
2023-02-16T20:33:40.197Z,100088.38
2023-02-16T20:37:43.943Z,100099.00
2023-02-16T20:41:47.518Z,100104.13
2023-02-16T20:45:52.417Z,100097.53
2023-02-16T20:49:55.626Z,100093.81
2023-02-16T20:54:00.463Z,100083.97
2023-02-16T20:58:03.691Z,100091.28
2023-02-16T21:02:08.689Z,100092.03
2023-02-16T21:06:15.031Z,100097.69
2023-02-16T21:10:18.596Z,100095.66
2023-02-16T21:14:21.942Z,100089.25
2023-02-16T21:18:26.951Z,100089.38
2023-02-16T21:22:30.768Z,100084.78
2023-02-16T21:26:34.207Z,100091.44
2023-02-16T21:30:37.637Z,100094.13
2023-02-16T21:34:42.289Z,100090.09
2023-02-16T21:38:47.399Z,100085.75
2023-02-16T21:42:51.918Z,100092.50
2023-02-16T21:46:55.618Z,100085.69
2023-02-16T21:51:02.662Z,100085.91
2023-02-16T21:55:32.255Z,100086.31
2023-02-16T21:59:35.628Z,100082.06
2023-02-16T22:03:39.087Z,100080.16
2023-02-16T22:07:43.794Z,100061.34
2023-02-16T22:11:47.565Z,100071.56
2023-02-16T22:15:51.197Z,100068.34
2023-02-16T22:19:54.417Z,100071.41
2023-02-16T22:24:00.969Z,100047.34
2023-02-16T22:28:04.513Z,100066.34
2023-02-16T22:32:07.988Z,100061.00
2023-02-16T22:36:15.217Z,100071.69
2023-02-16T22:40:20.080Z,100069.56
2023-02-16T22:44:23.368Z,100064.13
2023-02-16T22:48:27.346Z,100048.97
2023-02-16T22:52:30.695Z,100039.88
2023-02-16T22:56:36.195Z,100057.34
2023-02-16T23:00:39.684Z,100059.72
2023-02-16T23:04:43.367Z,100065.38
2023-02-16T23:08:48.828Z,100058.00
2023-02-16T23:12:53.677Z,100060.63
2023-02-16T23:16:57.013Z,100067.31
2023-02-16T23:21:06.592Z,100064.75
2023-02-16T23:25:27.005Z,100061.88
2023-02-16T23:29:31.756Z,100067.97
2023-02-16T23:33:35.178Z,100071.34
2023-02-16T23:37:38.465Z,100064.69
2023-02-16T23:41:42.861Z,100064.75
2023-02-16T23:45:48.021Z,100078.34
2023-02-16T23:49:51.592Z,100080.31
2023-02-16T23:53:55.159Z,100069.84
2023-02-16T23:57:58.425Z,100074.09
